Overview Statistics Trail Chart Weather Telemetry Raw packets
 

This is the latest recevied weather packets stored in our database for station/object GBTWP-2. If no packets are shown the sender has not sent any weather packets the latest 10 day(s).

<< 109 110 111 112 113 114 115 >>
Time Temp. Humidity Pressure Rain* Wind** Luminosity Snow
1787850120 24.44° C 66% 1017.4 hPa 0 mm - 731 W/m² -
1787849818 24.44° C 66% 1017.5 hPa 0 mm - 169 W/m² -
1787849517 23.89° C 67% 1017.4 hPa 0 mm - 758 W/m² -
1787849219 23.89° C 67% 1017.5 hPa 0 mm - 166 W/m² -
1787848920 23.33° C 67% 1017.4 hPa 0 mm - 224 W/m² -
1787848624 23.33° C 68% 1017.6 hPa 0 mm - 196 W/m² -
1787848319 23.89° C 66% 1017.6 hPa 0 mm - 140 W/m² -
1787848020 24.44° C 65% 1017.5 hPa 0 mm - 288 W/m² -
1787847720 23.89° C 66% 1017.5 hPa 0 mm - 708 W/m² -
1787847421 23.89° C 66% 1017.3 hPa 0 mm - 179 W/m² -
1787847119 23.89° C 67% 1017.4 hPa 0 mm - 642 W/m² -
1787846820 24.44° C 68% 1017.3 hPa 0 mm - 669 W/m² -
1787846520 24.44° C 66% 1017.3 hPa 0 mm - 147 W/m² -
1787846220 24.44° C 66% 1017.2 hPa 0 mm - 602 W/m² -
1787845920 23.89° C 68% 1017.2 hPa 0 mm - 625 W/m² -
1787845620 23.33° C 71% 1017.3 hPa 0 mm - 600 W/m² -
1787845320 23.33° C 70% 1017.1 hPa 0 mm - 165 W/m² -
1787845020 23.89° C 69% 1017.2 hPa 0 mm - 151 W/m² -
1787844720 23.33° C 71% 1017.2 hPa 0 mm - 577 W/m² -
1787844420 23.89° C 70% 1017.2 hPa 0 mm - 107 W/m² -
1787844120 23.33° C 70% 1017.1 hPa 0 mm - 648 W/m² -
1787843821 23.33° C 71% 1017.3 hPa 0 mm - 107 W/m² -
1787843524 22.78° C 73% 1017.2 hPa 0 mm - 173 W/m² -
1787843220 22.78° C 74% 1017.2 hPa 0 mm - 566 W/m² -
1787842920 23.33° C 72% 1017.2 hPa 0 mm - 569 W/m² -

* Rain latest hour (hover to see other rain measurements)
** Current wind speed in m/s (hover to see current wind gust speed)